Time;durP1;ratioP1;P1;durP2;ratioP2;P2;SDS_P1;SDS_P2;PMS_P1;PMS_P2;Temp;Humidity;BMP_temperature;BMP_pressure;BME280_temperature;BME280_humidity;BME280_pressure;Samples;Min_cycle;Max_cycle;Signal;HPM_P1;HPM_P2
2021/12/19 00:00:10;;;;;;;3.75;1.70;;;;;;;4.27;55.08;97685.50;3416284;29;20109;-72
2021/12/19 00:04:43;;;;;;;2.78;1.65;;;;;;;4.23;55.08;97682.47;3373804;29;20537;-71
2021/12/19 00:09:58;;;;;;;2.60;1.25;;;;;;;4.26;55.06;97663.63;3403260;29;20131;-73
2021/12/19 00:11:39;;;;;;;2.15;1.95;;;;;;;4.23;55.23;97660.56;3415210;28;20035;-73
2021/12/19 00:13:20;;;;;;;1.60;1.20;;;;;;;4.19;55.22;97648.81;3427946;28;20039;-72
2021/12/19 00:15:01;;;;;;;0.95;0.95;;;;;;;4.14;55.37;97646.78;3428096;28;20514;-73
2021/12/19 00:16:43;;;;;;;2.63;1.33;;;;;;;4.12;55.54;97639.06;3414646;29;20043;-72
2021/12/19 00:18:24;;;;;;;1.63;1.27;;;;;;;4.10;55.57;97620.00;3426734;28;20038;-72
2021/12/19 00:20:06;;;;;;;2.22;2.00;;;;;;;4.11;55.54;97626.09;3429574;28;20038;-71
2021/12/19 00:21:47;;;;;;;3.55;1.50;;;;;;;4.14;55.58;97612.50;3429550;28;20043;-72
2021/12/19 00:23:28;;;;;;;2.03;1.40;;;;;;;4.17;55.67;97609.47;3429427;28;20053;-72
2021/12/19 00:25:09;;;;;;;2.55;1.58;;;;;;;4.18;55.56;97605.00;3417361;28;20046;-74
2021/12/19 00:26:50;;;;;;;2.95;1.70;;;;;;;4.20;55.61;97600.34;3416061;29;20043;-72
2021/12/19 00:28:32;;;;;;;1.95;1.45;;;;;;;4.22;55.44;97596.47;3416155;29;20474;-72
2021/12/19 00:30:13;;;;;;;1.70;1.10;;;;;;;4.24;55.45;97583.91;3416243;29;20035;-74
2021/12/19 00:31:54;;;;;;;2.42;1.25;;;;;;;4.24;55.45;97583.09;3401980;29;20046;-71
2021/12/19 00:33:35;;;;;;;2.55;1.40;;;;;;;4.25;55.50;97574.97;3413380;29;20054;-73
2021/12/19 00:35:17;;;;;;;4.68;1.60;;;;;;;4.27;55.38;97575.56;3417109;28;20126;-72
2021/12/19 00:36:57;;;;;;;2.00;1.40;;;;;;;4.29;55.47;97560.38;3416142;29;20050;-73
2021/12/19 00:38:38;;;;;;;2.03;1.20;;;;;;;4.29;55.39;97559.56;3415143;28;20407;-73
2021/12/19 00:40:20;;;;;;;2.35;1.38;;;;;;;4.29;55.29;97555.09;3425336;28;20038;-72
2021/12/19 00:42:04;;;;;;;2.70;1.65;;;;;;;4.30;55.29;97540.88;3429569;28;20125;-72
2021/12/19 00:43:53;;;;;;;2.10;1.55;;;;;;;4.30;55.27;97540.88;3429992;28;20042;-72
2021/12/19 00:45:35;;;;;;;2.33;1.27;;;;;;;4.33;55.46;97531.75;3420155;28;20042;-71
2021/12/19 00:47:16;;;;;;;1.88;1.30;;;;;;;4.31;55.35;97526.69;3415907;29;20134;-73
2021/12/19 00:48:57;;;;;;;1.30;1.15;;;;;;;4.32;55.27;97528.31;3416050;29;20043;-73
2021/12/19 00:50:37;;;;;;;2.47;1.40;;;;;;;4.33;55.27;97523.84;3415976;29;20043;-72
2021/12/19 00:52:19;;;;;;;3.88;1.38;;;;;;;4.35;55.44;97512.06;3415811;29;20066;-72
2021/12/19 00:54:00;;;;;;;1.30;1.20;;;;;;;4.32;55.27;97499.31;3416110;29;20465;-72
2021/12/19 00:55:40;;;;;;;1.70;1.13;;;;;;;4.34;55.28;97505.19;3416605;28;20039;-73
2021/12/19 00:57:23;;;;;;;1.67;1.42;;;;;;;4.30;55.42;97488.16;3415867;29;20051;-72
2021/12/19 00:59:05;;;;;;;2.38;1.10;;;;;;;4.26;55.46;97475.59;3415870;29;20066;-72
2021/12/19 01:00:46;;;;;;;2.83;0.88;;;;;;;4.24;55.52;97488.19;3415853;29;20039;-72
2021/12/19 01:02:27;;;;;;;1.48;1.02;;;;;;;4.20;55.64;97474.59;3397765;29;20122;-71
2021/12/19 01:04:11;;;;;;;1.67;1.20;;;;;;;4.18;55.79;97458.16;3412625;29;20155;-71
2021/12/19 01:05:53;;;;;;;2.35;1.63;;;;;;;4.19;55.66;97465.06;3422182;28;20031;-72
2021/12/19 01:07:37;;;;;;;1.77;1.23;;;;;;;4.18;55.63;97445.00;3422273;28;20058;-72
2021/12/19 01:09:18;;;;;;;1.38;1.27;;;;;;;4.18;55.76;97441.56;3401819;29;20058;-74
2021/12/19 01:11:00;;;;;;;2.58;1.30;;;;;;;4.17;55.82;97440.75;3393825;29;20087;-73
2021/12/19 01:12:40;;;;;;;1.52;1.30;;;;;;;4.20;55.74;97428.97;3407010;28;20150;-71
2021/12/19 01:14:22;;;;;;;1.48;1.25;;;;;;;4.22;55.69;97419.03;3415234;29;20392;-71
2021/12/19 01:16:03;;;;;;;2.20;1.50;;;;;;;4.25;55.64;97416.78;3412823;29;20494;-73
2021/12/19 01:17:44;;;;;;;2.75;1.20;;;;;;;4.28;55.62;97418.97;3412810;29;20094;-72
2021/12/19 01:19:25;;;;;;;2.78;1.25;;;;;;;4.31;55.73;97405.41;3400029;29;20039;-73
2021/12/19 01:21:06;;;;;;;3.42;1.58;;;;;;;4.33;55.48;97392.78;3404097;29;20126;-72
2021/12/19 01:22:47;;;;;;;2.47;1.25;;;;;;;4.35;55.50;97401.31;3418666;28;20050;-69
2021/12/19 01:24:27;;;;;;;2.03;1.30;;;;;;;4.35;55.40;97393.41;3439793;23;20051;-71
2021/12/19 01:26:08;;;;;;;2.70;1.33;;;;;;;4.37;55.43;97386.09;3403370;29;20043;-71
2021/12/19 01:27:49;;;;;;;2.30;1.15;;;;;;;4.37;55.47;97378.19;3402926;29;20074;-71
2021/12/19 01:29:30;;;;;;;1.85;1.15;;;;;;;4.37;55.39;97370.28;3402895;29;20047;-70
2021/12/19 01:31:12;;;;;;;4.80;1.20;;;;;;;4.38;55.50;97374.50;3402553;29;20462;-70
2021/12/19 01:32:53;;;;;;;1.85;1.10;;;;;;;4.36;55.53;97366.03;3397900;29;20047;-72
2021/12/19 01:34:34;;;;;;;1.05;1.00;;;;;;;4.37;55.43;97364.19;3389374;29;20078;-72
2021/12/19 01:36:15;;;;;;;1.60;1.02;;;;;;;4.35;55.42;97356.47;3389822;29;20504;-72
2021/12/19 01:37:56;;;;;;;1.83;1.58;;;;;;;4.35;55.44;97343.31;3389667;29;20130;-72
2021/12/19 01:39:37;;;;;;;2.97;1.60;;;;;;;4.38;55.37;97353.41;3384946;29;20092;-72
2021/12/19 01:41:18;;;;;;;1.63;1.00;;;;;;;4.36;55.43;97342.28;3389198;29;20047;-73
2021/12/19 01:42:59;;;;;;;1.75;1.23;;;;;;;4.35;55.53;97332.75;3388591;29;20164;-73
2021/12/19 01:44:39;;;;;;;0.77;0.77;;;;;;;4.36;55.51;97328.28;3375518;29;20048;-73
2021/12/19 01:46:20;;;;;;;1.85;1.02;;;;;;;4.31;55.56;97315.75;3386689;29;20448;-72
2021/12/19 01:48:07;;;;;;;1.95;1.10;;;;;;;4.32;55.55;97311.28;3389398;29;20052;-72
2021/12/19 01:49:48;;;;;;;2.08;1.23;;;;;;;4.29;55.59;97307.25;3388835;29;20044;-74
2021/12/19 01:51:28;;;;;;;1.42;1.08;;;;;;;4.32;55.61;97311.28;3389454;29;20044;-73
2021/12/19 01:53:11;;;;;;;1.30;1.15;;;;;;;4.31;55.61;97305.22;3389434;29;20580;-72
2021/12/19 01:54:52;;;;;;;1.60;1.23;;;;;;;4.34;55.64;97293.44;3388500;29;20047;-72
2021/12/19 01:56:33;;;;;;;2.38;1.58;;;;;;;4.34;55.64;97275.78;3388859;29;20416;-73
2021/12/19 01:58:14;;;;;;;1.80;1.20;;;;;;;4.33;55.72;97268.06;3388769;29;20044;-72
2021/12/19 01:59:55;;;;;;;1.80;1.42;;;;;;;4.35;55.54;97280.00;3388760;29;20127;-71
2021/12/19 02:01:44;;;;;;;2.88;1.55;;;;;;;4.32;55.56;97269.91;3389303;29;20055;-71
2021/12/19 02:03:25;;;;;;;1.45;1.17;;;;;;;4.32;55.73;97253.28;3389095;29;20047;-71
2021/12/19 02:05:07;;;;;;;1.80;1.25;;;;;;;4.30;55.64;97250.84;3374830;29;20358;-72
2021/12/19 02:06:48;;;;;;;1.83;1.17;;;;;;;4.35;55.62;97247.56;3386680;29;20504;-73
2021/12/19 02:08:29;;;;;;;3.67;1.52;;;;;;;4.34;55.48;97241.50;3389139;29;20040;-72
2021/12/19 02:10:10;;;;;;;1.27;0.90;;;;;;;4.38;55.47;97226.84;3389401;29;20044;-73
2021/12/19 02:11:52;;;;;;;1.35;1.23;;;;;;;4.39;55.52;97217.13;3389112;29;20036;-73
2021/12/19 02:13:33;;;;;;;2.65;1.35;;;;;;;4.42;55.76;97216.69;3375124;29;20082;-74
2021/12/19 02:15:17;;;;;;;2.15;1.10;;;;;;;4.42;55.63;97210.59;3372871;29;20049;-72
2021/12/19 02:16:57;;;;;;;1.73;1.15;;;;;;;4.42;55.37;97210.59;3386827;29;20575;-72
2021/12/19 02:18:38;;;;;;;1.40;1.30;;;;;;;4.40;55.66;97199.47;3375352;29;20048;-72
2021/12/19 02:20:20;;;;;;;2.38;1.08;;;;;;;4.41;55.58;97198.44;3386380;29;20048;-71
2021/12/19 02:22:02;;;;;;;1.38;1.27;;;;;;;4.38;55.59;97178.56;3388909;29;20060;-71
2021/12/19 02:23:43;;;;;;;0.90;0.90;;;;;;;4.42;55.58;97190.31;3389253;29;20055;-71
2021/12/19 02:25:24;;;;;;;1.10;1.00;;;;;;;4.42;55.59;97174.50;3388805;29;20476;-71
2021/12/19 02:27:04;;;;;;;2.25;0.90;;;;;;;4.42;55.62;97166.59;3389043;29;20567;-71
2021/12/19 02:28:45;;;;;;;1.90;1.20;;;;;;;4.41;55.57;97162.31;3389137;29;20040;-72
2021/12/19 02:30:26;;;;;;;0.93;0.88;;;;;;;4.40;55.60;97165.19;3388993;29;20131;-71
2021/12/19 02:32:07;;;;;;;1.10;1.00;;;;;;;4.37;55.60;97154.03;3391642;29;20475;-71
2021/12/19 02:35:58;;;;;;;1.27;0.90;;;;;;;4.37;55.71;97146.13;3387006;29;20423;-71
2021/12/19 02:49:22;;;;;;;1.00;0.98;;;;;;;4.38;55.49;97095.00;3389267;29;20045;-73
2021/12/19 02:51:03;;;;;;;0.68;0.68;;;;;;;4.38;55.58;97105.53;3376216;29;20453;-72
2021/12/19 02:52:44;;;;;;;1.00;0.77;;;;;;;4.33;55.50;97088.78;3379962;29;20046;-71
2021/12/19 02:54:25;;;;;;;0.98;0.93;;;;;;;4.37;55.61;97088.13;3375026;29;20128;-72
2021/12/19 02:56:09;;;;;;;1.00;0.80;;;;;;;4.36;55.78;97086.53;3386578;29;20040;-72
2021/12/19 02:57:50;;;;;;;0.80;0.80;;;;;;;4.35;55.56;97074.34;3389155;29;20044;-73
2021/12/19 02:59:32;;;;;;;0.85;0.80;;;;;;;4.35;55.67;97081.47;3388677;29;20044;-72
2021/12/19 03:01:16;;;;;;;1.05;0.90;;;;;;;4.33;55.58;97070.31;3389412;29;20507;-72
2021/12/19 03:02:57;;;;;;;1.00;0.80;;;;;;;4.30;55.72;97070.75;3362907;29;20060;-71
2021/12/19 03:04:38;;;;;;;1.40;1.00;;;;;;;4.28;55.72;97055.16;3375838;29;20051;-72
2021/12/19 03:06:18;;;;;;;0.93;0.80;;;;;;;4.28;55.61;97057.78;3378486;29;20048;-73
2021/12/19 03:08:01;;;;;;;0.98;0.90;;;;;;;4.29;55.81;97059.41;3378726;29;20071;-72
2021/12/19 03:10:19;;;;;;;2.63;0.80;;;;;;;4.28;55.68;97039.31;3378563;29;20075;-72
2021/12/19 03:19:24;;;;;;;1.08;0.85;;;;;;;4.30;55.65;97032.00;3384405;29;20107;-72
2021/12/19 03:21:10;;;;;;;0.80;0.80;;;;;;;4.29;55.70;97017.22;3402870;29;20044;-72
2021/12/19 03:22:51;;;;;;;1.05;0.90;;;;;;;4.33;55.59;97022.84;3394481;29;20040;-73
2021/12/19 03:24:33;;;;;;;0.82;0.73;;;;;;;4.35;55.58;97018.97;3390599;29;20051;-72
2021/12/19 03:26:15;;;;;;;1.15;1.05;;;;;;;4.34;55.74;97017.38;3391155;29;20051;-71
2021/12/19 03:27:59;;;;;;;1.17;0.90;;;;;;;4.37;55.83;97016.94;3390937;29;20032;-72
2021/12/19 03:29:40;;;;;;;0.90;0.90;;;;;;;4.40;55.52;97006.97;3377190;29;20049;-71
2021/12/19 03:31:20;;;;;;;0.77;0.65;;;;;;;4.42;55.56;97011.00;3374986;29;20055;-71
2021/12/19 03:33:02;;;;;;;0.85;0.85;;;;;;;4.42;55.58;96999.66;3387418;29;20583;-71
2021/12/19 03:34:43;;;;;;;1.50;0.80;;;;;;;4.46;55.56;96995.53;3391249;29;20138;-71
2021/12/19 03:36:23;;;;;;;1.00;0.90;;;;;;;4.48;55.45;96996.13;3391181;29;20048;-70
2021/12/19 03:38:07;;;;;;;1.00;0.85;;;;;;;4.49;55.54;96993.28;3390644;29;20118;-71
2021/12/19 03:39:56;;;;;;;1.15;1.00;;;;;;;4.49;55.54;96977.44;3390005;29;20071;-71
2021/12/19 03:41:37;;;;;;;1.02;0.80;;;;;;;4.52;55.53;96971.72;3391040;29;20048;-71
2021/12/19 03:43:22;;;;;;;1.15;0.90;;;;;;;4.53;55.53;96970.69;3390236;29;20044;-71
2021/12/19 03:45:05;;;;;;;1.23;0.90;;;;;;;4.55;55.43;96966.00;3390991;29;20048;-71
2021/12/19 03:46:46;;;;;;;1.58;1.10;;;;;;;4.59;55.42;96971.63;3391423;29;20314;-72
2021/12/19 03:48:27;;;;;;;1.52;0.82;;;;;;;4.62;55.34;96968.56;3377110;29;20545;-71
2021/12/19 03:50:11;;;;;;;0.63;0.63;;;;;;;4.64;55.31;96953.28;3374409;29;20477;-71
2021/12/19 03:51:53;;;;;;;0.80;0.80;;;;;;;4.65;55.39;96960.19;3373790;29;20136;-72
2021/12/19 03:53:34;;;;;;;1.10;1.00;;;;;;;4.65;55.35;96941.72;3387855;29;20393;-72
2021/12/19 03:55:15;;;;;;;0.80;0.80;;;;;;;4.66;55.37;96937.25;3391246;29;20126;-72
2021/12/19 03:56:55;;;;;;;1.30;1.20;;;;;;;4.65;55.29;96936.44;3391099;29;20100;-72
2021/12/19 03:58:36;;;;;;;1.10;1.00;;;;;;;4.64;55.39;96934.81;3390991;29;20048;-72
2021/12/19 04:00:23;;;;;;;1.60;1.17;;;;;;;4.61;55.44;96918.66;3390735;29;20545;-74
2021/12/19 04:02:04;;;;;;;0.70;0.70;;;;;;;4.62;55.48;96921.06;3390693;29;20036;-71
2021/12/19 04:03:46;;;;;;;1.10;1.00;;;;;;;4.62;55.43;96921.06;3390464;29;20179;-72
2021/12/19 04:05:27;;;;;;;2.00;1.35;;;;;;;4.62;55.39;96915.81;3391215;29;20048;-73
2021/12/19 04:07:08;;;;;;;1.20;0.90;;;;;;;4.61;55.40;96906.25;3376763;29;20048;-72
2021/12/19 04:08:50;;;;;;;1.30;1.10;;;;;;;4.62;55.55;96909.69;3387949;29;20080;-71
2021/12/19 04:10:31;;;;;;;1.13;1.08;;;;;;;4.63;55.31;96901.56;3390752;29;20047;-73
2021/12/19 04:12:11;;;;;;;1.10;1.00;;;;;;;4.66;55.61;96897.69;3390868;29;20044;-72
2021/12/19 04:13:52;;;;;;;2.65;0.90;;;;;;;4.68;55.44;96887.72;3390289;29;20504;-72
2021/12/19 04:15:34;;;;;;;0.90;0.90;;;;;;;4.68;55.29;96883.22;3390598;29;20051;-73
2021/12/19 04:17:15;;;;;;;1.40;1.10;;;;;;;4.70;55.17;96875.91;3390577;29;20536;-72
2021/12/19 04:18:55;;;;;;;0.80;0.80;;;;;;;4.68;55.41;96880.59;3394290;29;20027;-73
2021/12/19 04:20:36;;;;;;;1.25;1.10;;;;;;;4.71;55.38;96871.44;3372884;29;20123;-73
2021/12/19 04:22:17;;;;;;;0.70;0.70;;;;;;;4.72;55.41;96863.25;3384760;29;20040;-73
2021/12/19 04:23:57;;;;;;;1.15;1.05;;;;;;;4.74;55.27;96861.22;3375951;29;20073;-73
2021/12/19 04:25:39;;;;;;;2.30;1.00;;;;;;;4.74;55.29;96860.41;3387899;29;20058;-72
2021/12/19 04:27:19;;;;;;;1.83;1.00;;;;;;;4.78;55.43;96861.59;3390400;29;20060;-73
2021/12/19 04:29:00;;;;;;;1.05;0.90;;;;;;;4.80;55.27;96855.03;3390319;29;20052;-72
2021/12/19 04:30:41;;;;;;;1.77;1.67;;;;;;;4.83;55.12;96856.44;3390519;29;20047;-73
2021/12/19 04:32:30;;;;;;;1.40;1.30;;;;;;;4.82;55.23;96846.88;3390398;29;20100;-72
2021/12/19 04:34:14;;;;;;;0.93;0.90;;;;;;;4.85;55.18;96850.91;3389947;29;20040;-72
2021/12/19 04:36:00;;;;;;;1.67;0.90;;;;;;;4.86;55.06;96850.69;3390479;29;20048;-72
2021/12/19 04:38:19;;;;;;;1.08;1.00;;;;;;;4.89;55.19;96838.88;3390271;29;20156;-71
2021/12/19 04:40:09;;;;;;;1.15;1.08;;;;;;;4.93;54.96;96837.38;3389849;29;20044;-73
2021/12/19 04:57:32;;;;;;;1.17;1.08;;;;;;;4.98;54.84;96805.81;3378617;29;20083;-70
2021/12/19 05:01:24;;;;;;;1.90;1.27;;;;;;;4.98;54.81;96803.16;3397842;29;20044;-72
2021/12/19 05:03:25;;;;;;;1.17;0.90;;;;;;;4.98;54.75;96797.91;3390042;29;20376;-71
2021/12/19 05:14:45;;;;;;;1.13;1.02;;;;;;;5.03;54.54;96779.53;3388998;29;20130;-71
2021/12/19 05:16:26;;;;;;;1.40;1.30;;;;;;;5.04;54.95;96767.97;3389785;29;20173;-70
2021/12/19 05:18:09;;;;;;;0.93;0.90;;;;;;;5.04;54.79;96757.41;3389507;29;20048;-70
2021/12/19 05:20:08;;;;;;;1.40;1.00;;;;;;;5.04;54.85;96765.31;3389889;29;20076;-72
2021/12/19 05:21:52;;;;;;;1.40;1.30;;;;;;;5.07;54.75;96764.84;3375849;29;20047;-73
2021/12/19 05:23:50;;;;;;;1.38;1.02;;;;;;;5.06;54.92;96760.63;3372955;29;20048;-72
2021/12/19 05:25:31;;;;;;;1.02;0.90;;;;;;;5.07;54.83;96754.28;3389406;29;20134;-74
2021/12/19 05:27:12;;;;;;;3.75;1.30;;;;;;;5.09;54.78;96754.88;3389497;29;20134;-74
2021/12/19 05:28:52;;;;;;;2.40;1.60;;;;;;;5.09;54.97;96752.22;3390065;29;20128;-73
2021/12/19 05:30:33;;;;;;;3.13;1.45;;;;;;;5.10;54.90;96747.75;3389698;29;20050;-74
2021/12/19 05:32:14;;;;;;;1.67;1.08;;;;;;;5.12;54.98;96753.59;3388114;29;20479;-73
2021/12/19 05:33:55;;;;;;;2.03;1.13;;;;;;;5.12;54.89;96750.97;3388678;29;20072;-72
2021/12/19 05:45:33;;;;;;;1.40;1.05;;;;;;;5.16;54.71;96723.88;3389317;29;20046;-73
2021/12/19 05:47:14;;;;;;;1.02;0.88;;;;;;;5.17;54.72;96727.31;3388769;29;20046;-72
2021/12/19 05:48:55;;;;;;;1.77;1.20;;;;;;;5.16;54.77;96720.41;3389503;29;20488;-72
2021/12/19 05:50:37;;;;;;;3.88;2.13;;;;;;;5.16;54.81;96721.22;3374944;29;20135;-72
2021/12/19 05:52:18;;;;;;;1.50;1.15;;;;;;;5.18;54.76;96721.78;3386527;29;20066;-73
2021/12/19 05:53:59;;;;;;;2.75;1.35;;;;;;;5.17;54.84;96717.53;3389641;29;20135;-73
2021/12/19 05:55:40;;;;;;;3.95;1.30;;;;;;;5.19;54.86;96717.31;3389050;29;20044;-73
2021/12/19 05:57:20;;;;;;;4.57;1.48;;;;;;;5.18;54.72;96711.22;3389529;29;20134;-71
2021/12/19 05:59:01;;;;;;;2.38;2.03;;;;;;;5.18;54.89;96710.44;3389672;29;20041;-70
2021/12/19 06:00:42;;;;;;;2.97;1.50;;;;;;;5.19;54.88;96712.84;3389060;29;20764;-70
2021/12/19 06:02:23;;;;;;;4.43;2.85;;;;;;;5.21;54.84;96707.31;3375230;29;20075;-74
2021/12/19 06:04:04;;;;;;;2.67;1.60;;;;;;;5.20;54.87;96706.50;3386572;29;20044;-73
2021/12/19 06:05:45;;;;;;;2.90;1.77;;;;;;;5.21;54.69;96700.22;3389171;29;20056;-71
2021/12/19 06:07:25;;;;;;;2.00;1.40;;;;;;;5.23;54.85;96692.03;3389220;29;20048;-72
2021/12/19 06:09:06;;;;;;;2.33;1.67;;;;;;;5.23;54.83;96689.41;3387086;29;20052;-72
2021/12/19 06:10:47;;;;;;;3.55;2.88;;;;;;;5.22;54.82;96683.34;3374861;29;20558;-72
2021/12/19 06:12:27;;;;;;;4.18;2.00;;;;;;;5.24;54.80;96685.75;3398318;29;20083;-71
2021/12/19 06:14:08;;;;;;;1.85;1.75;;;;;;;5.23;54.71;96684.91;3402366;29;20054;-72
2021/12/19 06:15:52;;;;;;;5.90;1.63;;;;;;;5.27;54.83;96677.34;3388657;29;20036;-71
2021/12/19 06:17:33;;;;;;;2.22;1.70;;;;;;;5.29;54.64;96677.09;3389354;29;20534;-71
2021/12/19 06:19:13;;;;;;;2.55;1.70;;;;;;;5.24;54.74;96681.25;3389162;29;20048;-72
2021/12/19 06:20:54;;;;;;;3.53;1.75;;;;;;;5.29;54.82;96669.97;3389011;29;20035;-71
2021/12/19 06:22:35;;;;;;;2.58;1.60;;;;;;;5.30;54.68;96670.81;3374668;29;20067;-71
2021/12/19 06:24:15;;;;;;;5.00;2.25;;;;;;;5.32;54.68;96671.34;3385841;29;20052;-72
2021/12/19 06:25:56;;;;;;;2.35;1.63;;;;;;;5.33;54.61;96665.03;3389150;29;20069;-71
2021/12/19 06:27:37;;;;;;;2.45;2.30;;;;;;;5.33;54.72;96657.91;3389069;29;20047;-72
2021/12/19 06:29:18;;;;;;;4.50;1.98;;;;;;;5.35;54.70;96665.63;3389201;29;20464;-71
2021/12/19 06:30:58;;;;;;;3.50;2.05;;;;;;;5.33;54.67;96657.91;3388505;29;20148;-71
2021/12/19 06:32:39;;;;;;;3.42;2.08;;;;;;;5.33;54.54;96662.41;3389062;29;20419;-71
2021/12/19 06:34:20;;;;;;;8.13;2.00;;;;;;;5.33;54.70;96657.13;3388436;29;20342;-71
2021/12/19 06:36:02;;;;;;;2.75;1.90;;;;;;;5.32;54.82;96650.22;3389335;29;20127;-72
2021/12/19 06:37:42;;;;;;;3.97;2.08;;;;;;;5.31;54.99;96652.06;3377856;29;20059;-72
2021/12/19 06:39:23;;;;;;;2.80;2.35;;;;;;;5.31;54.77;96645.97;3388852;29;20424;-71
2021/12/19 06:41:04;;;;;;;3.08;1.85;;;;;;;5.31;54.90;96640.69;3391497;29;20135;-72
2021/12/19 06:42:44;;;;;;;2.53;2.20;;;;;;;5.32;54.86;96644.94;3391626;29;20123;-71
2021/12/19 06:44:26;;;;;;;2.78;1.83;;;;;;;5.32;54.86;96632.56;3391408;29;20448;-71
2021/12/19 06:46:08;;;;;;;2.60;1.60;;;;;;;5.33;54.81;96634.16;3391503;29;20079;-72
2021/12/19 06:47:49;;;;;;;2.28;1.63;;;;;;;5.32;54.91;96632.56;3391684;29;20040;-70
2021/12/19 06:49:29;;;;;;;1.80;1.45;;;;;;;5.32;54.90;96629.09;3391489;29;20140;-70
2021/12/19 06:51:10;;;;;;;1.70;1.60;;;;;;;5.35;54.82;96626.00;3391148;29;20048;-71
2021/12/19 06:52:51;;;;;;;2.78;1.52;;;;;;;5.36;54.83;96627.59;3391400;29;20063;-72
2021/12/19 06:54:32;;;;;;;2.50;1.67;;;;;;;5.36;54.86;96624.97;3391762;29;20036;-72
2021/12/19 06:56:13;;;;;;;1.90;1.65;;;;;;;5.33;55.00;96625.44;3377096;29;20044;-70
2021/12/19 06:57:53;;;;;;;1.67;1.40;;;;;;;5.33;55.02;96625.44;3374855;29;20051;-71
2021/12/19 06:59:34;;;;;;;1.63;1.48;;;;;;;5.32;54.86;96624.63;3388745;29;20040;-72
2021/12/19 07:01:15;;;;;;;2.67;1.60;;;;;;;5.34;54.97;96624.38;3390894;29;20040;-71
2021/12/19 07:02:56;;;;;;;4.00;1.50;;;;;;;5.33;54.98;96617.50;3380403;29;20431;-71
2021/12/19 07:04:37;;;;;;;7.18;1.90;;;;;;;5.34;54.83;96616.47;3388126;29;20490;-72
2021/12/19 07:06:18;;;;;;;3.00;1.55;;;;;;;5.37;54.87;96610.69;3391332;29;20051;-71
2021/12/19 07:07:58;;;;;;;4.85;1.65;;;;;;;5.38;54.79;96601.75;3391381;29;20048;-73
2021/12/19 07:09:40;;;;;;;3.10;1.50;;;;;;;5.39;54.98;96611.28;3391618;29;20131;-73
2021/12/19 07:11:21;;;;;;;3.63;1.87;;;;;;;5.41;54.95;96611.84;3391544;29;20048;-71
2021/12/19 07:13:01;;;;;;;3.88;1.80;;;;;;;5.38;54.96;96607.84;3397063;29;20106;-71
2021/12/19 07:14:43;;;;;;;4.65;1.38;;;;;;;5.41;55.00;96603.91;3404353;29;20039;-71
2021/12/19 07:16:24;;;;;;;;;;;;;;;5.52;54.72;96613.59;3392626;29;20044;-73
2021/12/19 07:18:06;;;;;;;2.70;1.52;;;;;;;5.49;54.83;96606.16;3391491;29;19918;-76
2021/12/19 07:19:47;;;;;;;;;;;;;;;5.62;55.06;96603.22;3391487;29;20040;-74
2021/12/19 07:21:29;;;;;;;6.60;1.42;;;;;;;5.64;55.64;96601.13;3377553;29;19927;-77
2021/12/19 07:23:15;;;;;;;2.35;2.03;;;;;;;5.77;57.17;96607.16;3388579;29;20040;-77
2021/12/19 07:24:56;;;;;;;4.40;1.85;;;;;;;5.85;56.78;96602.25;3391887;29;20064;-76
2021/12/19 07:26:36;;;;;;;3.88;1.80;;;;;;;5.93;57.38;96606.34;3375618;29;20090;-77
2021/12/19 07:28:17;;;;;;;6.22;1.98;;;;;;;6.00;57.81;96593.81;3388363;29;20047;-75
2021/12/19 07:29:58;;;;;;;5.93;1.50;;;;;;;6.11;57.97;96590.25;3390801;29;20453;-75
2021/12/19 07:31:39;;;;;;;3.55;1.40;;;;;;;6.28;57.92;96597.38;3364727;29;20032;-77
2021/12/19 07:33:19;;;;;;;2.15;1.27;;;;;;;6.40;57.87;96597.25;3385280;29;20052;-75
2021/12/19 07:35:00;;;;;;;5.00;1.55;;;;;;;6.48;58.07;96589.72;3390569;29;20628;-75
2021/12/19 07:36:50;;;;;;;3.83;2.00;;;;;;;6.55;58.04;96586.88;3390978;29;20044;-75
2021/12/19 07:38:40;;;;;;;2.28;1.48;;;;;;;6.60;58.11;96586.94;3391288;29;20051;-75
2021/12/19 07:40:22;;;;;;;7.25;1.73;;;;;;;6.65;57.85;96586.22;3390891;29;20039;-76
2021/12/19 07:42:08;;;;;;;4.63;1.50;;;;;;;6.69;58.01;96579.41;3398503;29;20071;-75
2021/12/19 07:43:49;;;;;;;2.05;1.30;;;;;;;6.73;58.03;96585.78;3378711;29;20037;-74
2021/12/19 07:45:33;;;;;;;2.72;1.77;;;;;;;6.76;58.43;96580.81;3388552;29;20139;-76
2021/12/19 07:47:14;;;;;;;2.42;1.50;;;;;;;6.78;58.16;96572.63;3390467;29;20047;-75
2021/12/19 07:48:54;;;;;;;2.08;1.60;;;;;;;6.80;58.04;96567.88;3376306;29;20120;-74
2021/12/19 07:50:35;;;;;;;2.95;1.30;;;;;;;6.83;58.17;96567.38;3374412;29;20045;-75
2021/12/19 07:52:16;;;;;;;1.40;1.30;;;;;;;6.89;58.06;96566.41;3394846;29;20119;-75
2021/12/19 07:53:57;;;;;;;2.35;1.63;;;;;;;6.94;57.95;96561.16;3390730;29;20052;-74
2021/12/19 07:55:37;;;;;;;1.70;1.15;;;;;;;6.98;58.05;96564.91;3390356;29;20043;-74
2021/12/19 07:57:18;;;;;;;2.58;1.27;;;;;;;7.04;58.05;96564.97;3390520;29;20446;-74
2021/12/19 07:58:59;;;;;;;2.58;1.23;;;;;;;7.06;57.98;96561.00;3390964;29;20047;-75
2021/12/19 08:00:40;;;;;;;1.40;1.23;;;;;;;7.10;57.90;96558.66;3390906;29;20052;-74
2021/12/19 08:02:20;;;;;;;2.25;1.35;;;;;;;7.13;57.88;96552.88;3391039;29;20052;-75
2021/12/19 08:04:01;;;;;;;1.92;1.20;;;;;;;7.18;57.94;96550.28;3390711;29;20507;-73
2021/12/19 08:05:42;;;;;;;5.82;1.80;;;;;;;7.18;58.10;96552.94;3390525;29;20111;-74
2021/12/19 08:07:23;;;;;;;2.70;1.50;;;;;;;7.18;58.15;96551.06;3390388;29;20491;-74
2021/12/19 08:09:09;;;;;;;1.85;1.50;;;;;;;7.22;58.08;96551.38;3390183;29;20052;-75
2021/12/19 08:12:30;;;;;;;3.63;1.50;;;;;;;7.27;58.04;96547.97;3376269;29;20429;-75
2021/12/19 08:14:15;;;;;;;2.90;1.92;;;;;;;7.31;57.81;96541.94;3396977;29;20503;-73
2021/12/19 08:15:56;;;;;;;5.10;1.80;;;;;;;7.34;57.97;96537.97;3390301;29;20091;-74
2021/12/19 08:17:37;;;;;;;4.05;2.00;;;;;;;7.34;57.95;96538.78;3389624;29;20071;-75
2021/12/19 08:19:18;;;;;;;2.20;1.52;;;;;;;7.39;58.15;96540.69;3389254;29;20044;-75
2021/12/19 08:20:58;;;;;;;4.57;2.25;;;;;;;7.39;58.01;96536.16;3390744;29;20048;-75
2021/12/19 08:22:40;;;;;;;3.45;1.70;;;;;;;7.40;58.10;96527.16;3389819;29;20043;-76
2021/12/19 08:24:20;;;;;;;3.00;1.77;;;;;;;7.42;58.05;96521.63;3389598;29;20063;-74
2021/12/19 08:26:01;;;;;;;1.55;1.23;;;;;;;7.48;57.80;96527.75;3379598;29;20127;-74
2021/12/19 08:27:42;;;;;;;3.15;1.50;;;;;;;7.49;58.11;96519.56;3387112;29;20064;-75
2021/12/19 08:29:23;;;;;;;3.20;1.58;;;;;;;7.52;58.11;96518.25;3389615;29;20443;-75
2021/12/19 08:31:03;;;;;;;3.78;1.40;;;;;;;7.53;58.11;96506.59;3390014;29;20147;-75
2021/12/19 08:32:44;;;;;;;3.72;1.30;;;;;;;7.53;58.01;96514.53;3389857;29;20048;-75
2021/12/19 08:34:25;;;;;;;3.63;1.48;;;;;;;7.58;58.09;96515.38;3389003;29;20127;-75
2021/12/19 08:36:07;;;;;;;2.20;1.55;;;;;;;7.63;58.07;96517.28;3389035;29;20044;-74
2021/12/19 08:37:48;;;;;;;6.53;1.60;;;;;;;7.64;58.07;96521.50;3375420;29;20044;-75
2021/12/19 08:39:31;;;;;;;3.45;1.33;;;;;;;7.61;58.33;96512.22;3386864;29;20476;-74
2021/12/19 08:41:12;;;;;;;3.78;2.00;;;;;;;7.63;58.30;96519.94;3389414;29;20044;-76
2021/12/19 08:42:53;;;;;;;5.80;2.85;;;;;;;7.61;58.70;96511.44;3376173;29;20045;-76
2021/12/19 08:44:34;;;;;;;3.72;1.75;;;;;;;7.60;58.86;96504.53;3360440;29;20047;-78
2021/12/19 08:46:15;;;;;;;1.98;1.30;;;;;;;7.59;58.82;96508.22;3372465;29;20547;-75
2021/12/19 08:47:57;;;;;;;7.37;2.03;;;;;;;7.58;59.27;96509.28;3372377;29;20044;-75
2021/12/19 08:49:40;;;;;;;2.30;1.50;;;;;;;7.62;59.07;96513.03;3386731;29;20043;-76
2021/12/19 08:51:21;;;;;;;2.88;1.55;;;;;;;7.66;59.70;96511.47;3390166;29;20048;-77
2021/12/19 08:53:01;;;;;;;4.53;1.60;;;;;;;7.76;59.26;96513.38;3375839;29;20561;-76
2021/12/19 08:54:45;;;;;;;5.82;2.03;;;;;;;7.81;58.91;96505.47;3386431;29;20051;-72
2021/12/19 08:56:27;;;;;;;3.15;1.30;;;;;;;7.83;58.71;96500.72;3389446;29;20131;-71
2021/12/19 08:58:07;;;;;;;5.70;1.48;;;;;;;7.81;58.74;96500.16;3393061;29;20123;-71
2021/12/19 08:59:49;;;;;;;3.53;1.35;;;;;;;7.75;58.89;96499.34;3387719;29;20044;-71
2021/12/19 09:01:31;;;;;;;3.42;1.30;;;;;;;7.70;58.96;96494.00;3384241;29;20067;-70
2021/12/19 09:03:14;;;;;;;3.90;1.67;;;;;;;7.64;58.91;96505.59;3388859;29;20117;-72
2021/12/19 09:04:55;;;;;;;3.00;1.77;;;;;;;7.58;59.04;96498.69;3389371;29;20048;-70
2021/12/19 09:06:37;;;;;;;3.10;1.27;;;;;;;7.52;58.97;96491.75;3392018;29;20546;-72
2021/12/19 09:08:18;;;;;;;3.50;1.58;;;;;;;7.47;59.05;96489.88;3381981;29;20049;-72
2021/12/19 09:10:00;;;;;;;2.22;1.23;;;;;;;7.42;58.97;96492.47;3386260;29;20417;-71
2021/12/19 09:11:40;;;;;;;2.33;1.40;;;;;;;7.38;59.04;96484.25;3393112;29;20047;-72